createdAt,value
2023-05-03T00:01:34.212Z,1.13
2023-05-03T00:04:20.472Z,0.98
2023-05-03T00:07:05.876Z,1.05
2023-05-03T00:09:51.201Z,1.23
2023-05-03T00:12:42.150Z,1.02
2023-05-03T00:15:27.743Z,1.00
2023-05-03T00:18:13.198Z,1.20
2023-05-03T00:20:59.741Z,1.02
2023-05-03T00:23:45.635Z,0.85
2023-05-03T00:26:30.981Z,0.85
2023-05-03T00:29:16.382Z,0.98
2023-05-03T00:32:02.434Z,0.95
2023-05-03T00:34:47.812Z,1.20
2023-05-03T00:37:33.556Z,1.08
2023-05-03T00:40:19.032Z,1.08
2023-05-03T00:43:04.658Z,1.00
2023-05-03T00:45:50.611Z,1.00
2023-05-03T00:48:36.025Z,1.08
2023-05-03T00:51:22.469Z,1.00
2023-05-03T00:54:08.383Z,1.60
2023-05-03T00:56:55.230Z,1.30
2023-05-03T00:59:41.292Z,0.90
2023-05-03T01:02:28.146Z,0.90
2023-05-03T01:05:13.698Z,1.05
2023-05-03T01:08:11.350Z,0.85
2023-05-03T01:11:14.851Z,1.02
2023-05-03T01:14:09.858Z,1.30
2023-05-03T01:17:02.156Z,0.90
2023-05-03T01:19:51.650Z,1.00
2023-05-03T01:22:58.998Z,0.95
2023-05-03T01:25:44.309Z,0.90
2023-05-03T01:28:29.621Z,1.10
2023-05-03T01:31:28.025Z,0.88
2023-05-03T01:34:19.717Z,1.25
2023-05-03T01:37:08.058Z,1.83
2023-05-03T01:40:02.239Z,1.83
2023-05-03T01:42:48.578Z,1.10
2023-05-03T01:45:34.175Z,0.98
2023-05-03T01:48:19.867Z,1.00
2023-05-03T01:51:05.788Z,1.17
2023-05-03T01:53:51.203Z,1.10
2023-05-03T01:56:37.907Z,1.00
2023-05-03T01:59:23.170Z,0.90
2023-05-03T02:02:08.639Z,1.05
2023-05-03T02:04:53.973Z,0.93
2023-05-03T02:07:39.482Z,0.90
2023-05-03T02:10:25.322Z,0.93
2023-05-03T02:13:14.047Z,1.08
2023-05-03T02:15:59.609Z,0.90
2023-05-03T02:18:45.112Z,0.95
2023-05-03T02:21:31.460Z,1.00
2023-05-03T02:24:16.753Z,1.00
2023-05-03T02:27:04.724Z,0.88
2023-05-03T02:29:50.373Z,0.70
2023-05-03T02:32:35.959Z,0.70
2023-05-03T02:35:21.709Z,0.90
2023-05-03T02:38:07.549Z,0.88
2023-05-03T02:40:53.116Z,0.80
2023-05-03T02:43:38.702Z,0.90
2023-05-03T02:46:24.011Z,1.00
2023-05-03T02:49:09.894Z,1.10
2023-05-03T02:51:56.870Z,1.00
2023-05-03T02:54:42.445Z,0.82
2023-05-03T02:57:46.781Z,1.00
2023-05-03T03:00:36.803Z,0.90
2023-05-03T03:03:22.312Z,0.80
2023-05-03T03:06:08.992Z,0.80
2023-05-03T03:08:54.748Z,0.70
2023-05-03T03:11:40.896Z,0.70
2023-05-03T03:14:27.118Z,0.82
2023-05-03T03:17:13.958Z,0.93
2023-05-03T03:20:01.997Z,0.95
2023-05-03T03:22:48.057Z,0.88
2023-05-03T03:25:34.453Z,0.90
2023-05-03T03:28:19.747Z,0.88
2023-05-03T03:31:05.196Z,0.82
2023-05-03T03:33:50.525Z,0.68
2023-05-03T03:36:39.356Z,0.80
2023-05-03T03:39:24.828Z,0.90
2023-05-03T03:42:13.130Z,0.77
2023-05-03T03:44:58.811Z,1.00
2023-05-03T03:47:44.376Z,0.70
2023-05-03T03:50:31.025Z,0.75
2023-05-03T03:53:17.031Z,0.80
2023-05-03T03:56:02.803Z,0.80
2023-05-03T03:58:49.323Z,0.63
2023-05-03T04:01:34.772Z,0.65
2023-05-03T04:04:21.085Z,0.80
2023-05-03T04:07:09.378Z,0.80
2023-05-03T04:09:56.682Z,0.90
2023-05-03T04:12:43.392Z,0.80
2023-05-03T04:15:31.405Z,0.90
2023-05-03T04:18:18.463Z,0.88
2023-05-03T04:21:04.258Z,0.70
2023-05-03T04:23:49.741Z,0.70
2023-05-03T04:26:38.143Z,0.80
2023-05-03T04:29:29.971Z,0.80
2023-05-03T04:32:16.950Z,0.80
2023-05-03T04:35:09.467Z,0.65
2023-05-03T04:37:56.934Z,0.80
2023-05-03T04:40:44.652Z,0.77
2023-05-03T04:43:30.580Z,0.82
2023-05-03T04:46:17.234Z,0.70
2023-05-03T04:49:03.223Z,0.90
2023-05-03T04:51:48.651Z,0.80
2023-05-03T04:54:35.265Z,0.82
2023-05-03T04:57:20.993Z,0.93
2023-05-03T05:00:11.231Z,0.85
2023-05-03T05:02:59.687Z,0.60
2023-05-03T05:05:48.416Z,0.52
2023-05-03T05:08:33.601Z,0.73
2023-05-03T05:11:20.781Z,0.70
2023-05-03T05:14:05.875Z,1.05
2023-05-03T05:16:52.010Z,0.73
2023-05-03T05:19:37.751Z,0.82
2023-05-03T05:22:23.264Z,0.82
2023-05-03T05:25:15.070Z,0.85
2023-05-03T05:28:00.661Z,0.70
2023-05-03T05:30:47.398Z,0.90
2023-05-03T05:33:32.596Z,0.73
2023-05-03T05:36:18.047Z,0.65
2023-05-03T05:39:03.955Z,0.70
2023-05-03T05:41:50.898Z,0.88
2023-05-03T05:44:36.331Z,0.73
2023-05-03T05:47:22.066Z,0.52
2023-05-03T05:50:17.720Z,0.68
2023-05-03T05:53:09.051Z,0.70
2023-05-03T05:55:58.414Z,0.80
2023-05-03T05:58:45.796Z,0.50
2023-05-03T06:01:32.149Z,0.77
2023-05-03T06:04:17.608Z,0.50
2023-05-03T06:07:03.089Z,0.70
2023-05-03T06:09:48.685Z,0.50
2023-05-03T06:12:33.951Z,0.70
2023-05-03T06:15:19.907Z,0.70
2023-05-03T06:18:06.093Z,0.80
2023-05-03T06:20:51.344Z,0.77
2023-05-03T06:23:39.662Z,0.73
2023-05-03T06:26:25.830Z,0.90
2023-05-03T06:29:11.697Z,0.70
2023-05-03T06:31:57.517Z,0.70
2023-05-03T06:34:43.233Z,0.65
2023-05-03T06:37:28.608Z,0.70
2023-05-03T06:40:14.522Z,0.60
2023-05-03T06:42:59.962Z,0.95
2023-05-03T06:45:55.004Z,1.10
2023-05-03T06:48:40.329Z,0.70
2023-05-03T06:51:30.614Z,0.60
2023-05-03T06:54:16.054Z,0.70
2023-05-03T06:57:02.362Z,0.70
2023-05-03T06:59:47.731Z,0.60
2023-05-03T07:02:34.247Z,0.60
2023-05-03T07:05:19.917Z,0.60
2023-05-03T07:08:05.405Z,0.52
2023-05-03T07:10:50.971Z,0.70
2023-05-03T07:13:36.463Z,0.60
2023-05-03T07:16:22.334Z,1.05
2023-05-03T07:19:07.815Z,0.70
2023-05-03T07:21:53.609Z,0.70
2023-05-03T07:24:39.464Z,0.65
2023-05-03T07:27:24.874Z,0.57
2023-05-03T07:30:10.466Z,0.60
2023-05-03T07:32:55.735Z,0.80
2023-05-03T07:35:40.954Z,0.65
2023-05-03T07:38:26.372Z,0.60
2023-05-03T07:41:11.870Z,0.60
2023-05-03T07:43:57.397Z,0.65
2023-05-03T07:46:42.767Z,0.60
2023-05-03T07:49:28.243Z,0.50
2023-05-03T07:52:13.608Z,0.70
2023-05-03T07:54:59.162Z,0.65
2023-05-03T07:57:45.147Z,0.70
2023-05-03T08:00:30.722Z,0.70
2023-05-03T08:03:16.171Z,0.68
2023-05-03T08:06:02.009Z,0.90
2023-05-03T08:08:47.743Z,0.80
2023-05-03T08:11:33.062Z,0.80
2023-05-03T08:14:18.487Z,0.77
2023-05-03T08:17:06.704Z,0.85
2023-05-03T08:19:52.193Z,0.90
2023-05-03T08:22:38.992Z,0.90
2023-05-03T08:25:26.051Z,0.80
2023-05-03T08:28:11.690Z,0.77
2023-05-03T08:30:57.638Z,1.00
2023-05-03T08:33:43.810Z,1.00
2023-05-03T08:36:29.055Z,0.80
2023-05-03T08:39:15.221Z,1.20
2023-05-03T08:42:01.653Z,1.27
2023-05-03T08:44:49.345Z,0.98
2023-05-03T08:47:37.464Z,0.70
2023-05-03T08:50:23.727Z,1.00
2023-05-03T08:53:10.340Z,1.00
2023-05-03T08:55:55.879Z,1.13
2023-05-03T08:58:41.145Z,1.10
2023-05-03T09:01:26.509Z,1.20
2023-05-03T09:04:12.796Z,1.02
2023-05-03T09:07:08.354Z,1.05
2023-05-03T09:09:54.869Z,1.00
2023-05-03T09:12:41.452Z,1.27
2023-05-03T09:15:29.481Z,0.80
2023-05-03T09:18:17.277Z,0.98
2023-05-03T09:21:02.661Z,1.00
2023-05-03T09:23:48.199Z,1.10
2023-05-03T09:26:37.388Z,1.10
2023-05-03T09:29:35.857Z,1.40
2023-05-03T09:32:22.830Z,1.08
2023-05-03T09:35:11.540Z,1.10
2023-05-03T09:37:56.727Z,1.00
2023-05-03T09:40:48.364Z,1.10
2023-05-03T09:43:35.751Z,0.80
2023-05-03T09:46:21.903Z,1.30
2023-05-03T09:49:07.719Z,1.00
2023-05-03T09:51:53.497Z,0.95
2023-05-03T09:54:39.108Z,1.13
2023-05-03T09:57:25.780Z,1.45
2023-05-03T10:00:13.557Z,1.25
2023-05-03T10:03:02.009Z,1.33
2023-05-03T10:05:49.924Z,1.40
2023-05-03T10:08:41.227Z,1.45
2023-05-03T10:11:27.610Z,1.50
2023-05-03T10:14:13.451Z,1.20
2023-05-03T10:17:02.413Z,1.40
2023-05-03T10:19:51.896Z,1.35
2023-05-03T10:23:09.548Z,1.38
2023-05-03T10:26:13.785Z,1.38
2023-05-03T10:29:01.330Z,1.40
2023-05-03T10:31:48.268Z,1.67
2023-05-03T10:34:39.752Z,1.67
2023-05-03T10:37:27.096Z,1.70
2023-05-03T10:40:15.114Z,2.10
2023-05-03T10:43:00.856Z,1.77
2023-05-03T10:45:47.827Z,2.10
2023-05-03T10:48:35.430Z,1.80
2023-05-03T10:51:30.913Z,2.03
2023-05-03T10:54:17.699Z,1.90
2023-05-03T10:57:03.422Z,2.15
2023-05-03T10:59:51.341Z,2.85
2023-05-03T11:02:40.592Z,2.50
2023-05-03T11:05:28.257Z,2.42
2023-05-03T11:08:17.876Z,2.60
2023-05-03T11:11:09.522Z,2.38
2023-05-03T11:13:55.560Z,1.90
2023-05-03T11:16:47.757Z,2.10
2023-05-03T11:22:19.406Z,1.83
2023-05-03T11:25:05.353Z,1.95
2023-05-03T11:27:51.246Z,2.00
2023-05-03T11:30:37.438Z,2.75
2023-05-03T11:33:23.171Z,2.30
2023-05-03T11:36:09.726Z,2.53
2023-05-03T11:38:55.461Z,2.00
2023-05-03T11:41:42.196Z,1.90
2023-05-03T11:44:27.626Z,2.10
2023-05-03T11:47:13.320Z,1.95
2023-05-03T11:49:58.810Z,2.22
2023-05-03T11:52:45.166Z,2.58
2023-05-03T11:55:31.301Z,2.05
2023-05-03T11:58:19.826Z,2.47
2023-05-03T12:01:05.920Z,2.03
2023-05-03T12:03:58.880Z,2.20
2023-05-03T12:06:52.848Z,2.10
2023-05-03T12:09:41.250Z,1.95
2023-05-03T12:12:31.443Z,2.38
2023-05-03T12:15:32.310Z,2.50
2023-05-03T12:18:19.290Z,2.50
2023-05-03T12:21:29.410Z,2.50
2023-05-03T12:24:10.800Z,2.30
2023-05-03T12:26:57.494Z,2.60
2023-05-03T12:29:42.779Z,2.22
2023-05-03T12:32:28.308Z,2.30
2023-05-03T12:35:14.379Z,2.13
2023-05-03T12:38:03.008Z,2.35
2023-05-03T12:40:49.041Z,1.98
2023-05-03T12:43:34.359Z,2.38
2023-05-03T12:46:34.110Z,2.40
2023-05-03T12:49:22.979Z,2.45
2023-05-03T12:55:00.458Z,2.50
2023-05-03T12:58:10.311Z,2.40
2023-05-03T13:03:44.669Z,2.35
2023-05-03T13:06:42.429Z,2.05
2023-05-03T13:09:37.841Z,2.22
2023-05-03T13:12:34.128Z,2.30
2023-05-03T13:15:20.015Z,2.70
2023-05-03T13:18:08.660Z,2.30
2023-05-03T13:20:53.778Z,2.30
2023-05-03T13:23:39.382Z,2.10
2023-05-03T13:26:24.895Z,2.30
2023-05-03T13:29:10.298Z,2.03
2023-05-03T13:31:55.973Z,2.30
2023-05-03T13:34:41.807Z,2.38
2023-05-03T13:37:27.162Z,2.70
2023-05-03T13:40:14.712Z,2.20
2023-05-03T13:43:00.234Z,2.10
2023-05-03T13:45:45.748Z,2.13
2023-05-03T13:48:32.515Z,2.58
2023-05-03T13:51:18.111Z,2.38
2023-05-03T13:54:05.738Z,2.33
2023-05-03T13:56:52.179Z,2.40
2023-05-03T13:59:37.487Z,2.90
2023-05-03T14:02:22.874Z,2.58
2023-05-03T14:05:10.670Z,2.47
2023-05-03T14:07:56.738Z,2.78
2023-05-03T14:10:41.805Z,2.53
2023-05-03T14:13:29.794Z,2.40
2023-05-03T14:16:35.939Z,2.50
2023-05-03T14:19:26.196Z,2.35
2023-05-03T14:22:11.560Z,2.15
2023-05-03T14:24:57.123Z,2.30
2023-05-03T14:27:43.302Z,2.75
2023-05-03T14:30:28.804Z,2.30
2023-05-03T14:33:14.972Z,2.80
2023-05-03T14:36:01.062Z,2.75
2023-05-03T14:38:46.371Z,2.53
2023-05-03T14:41:34.790Z,2.72
2023-05-03T14:44:20.515Z,2.40
2023-05-03T14:47:07.293Z,2.58
2023-05-03T14:49:52.452Z,3.00
2023-05-03T14:52:38.016Z,2.97
2023-05-03T14:55:23.650Z,2.80
2023-05-03T14:58:12.922Z,2.70
2023-05-03T15:00:57.960Z,2.83
2023-05-03T15:03:43.538Z,2.80
2023-05-03T15:06:31.748Z,2.97
2023-05-03T15:09:17.609Z,2.90
2023-05-03T15:12:03.804Z,3.10
2023-05-03T15:14:49.137Z,3.10
2023-05-03T15:17:34.492Z,2.90
2023-05-03T15:20:20.433Z,3.00
2023-05-03T15:23:05.966Z,3.20
2023-05-03T15:25:51.494Z,3.13
2023-05-03T15:28:36.903Z,2.90
2023-05-03T15:31:22.399Z,3.15
2023-05-03T15:34:07.933Z,2.90
2023-05-03T15:36:53.214Z,3.15
2023-05-03T15:39:38.789Z,3.20
2023-05-03T15:42:24.045Z,3.17
2023-05-03T15:45:10.696Z,3.00
2023-05-03T15:47:57.095Z,2.90
2023-05-03T15:50:42.382Z,2.78
2023-05-03T15:53:28.049Z,3.15
2023-05-03T15:56:13.467Z,3.38
2023-05-03T15:58:59.029Z,3.33
2023-05-03T16:01:44.461Z,3.40
2023-05-03T16:04:29.720Z,3.50
2023-05-03T16:07:15.450Z,4.07
2023-05-03T16:10:00.895Z,3.70
2023-05-03T16:12:46.282Z,3.55
2023-05-03T16:15:31.708Z,3.60
2023-05-03T16:18:17.344Z,3.38
2023-05-03T16:21:03.211Z,3.47
2023-05-03T16:23:49.066Z,3.40
2023-05-03T16:26:35.411Z,3.50
2023-05-03T16:29:20.976Z,3.60
2023-05-03T16:32:09.707Z,3.63
2023-05-03T16:34:55.456Z,3.80
2023-05-03T16:37:41.867Z,3.60
2023-05-03T16:40:27.468Z,3.40
2023-05-03T16:43:12.847Z,3.70
2023-05-03T16:46:00.222Z,4.00
2023-05-03T16:48:45.389Z,3.40
2023-05-03T16:51:31.578Z,3.70
2023-05-03T16:54:17.166Z,4.03
2023-05-03T16:57:02.436Z,3.63
2023-05-03T16:59:47.862Z,4.00
2023-05-03T17:02:33.609Z,3.85
2023-05-03T17:05:20.284Z,3.70
2023-05-03T17:08:08.454Z,3.55
2023-05-03T17:10:57.809Z,3.45
2023-05-03T17:13:43.143Z,4.25
2023-05-03T17:16:28.743Z,4.20
2023-05-03T17:19:15.695Z,3.50
2023-05-03T17:22:01.223Z,3.85
2023-05-03T17:24:46.322Z,4.30
2023-05-03T17:27:31.761Z,4.00
2023-05-03T17:30:20.882Z,4.47
2023-05-03T17:33:07.759Z,4.30
2023-05-03T17:35:53.528Z,4.40
2023-05-03T17:38:38.933Z,4.38
2023-05-03T17:41:24.461Z,4.72
2023-05-03T17:44:10.031Z,4.85
2023-05-03T17:46:55.413Z,4.43
2023-05-03T17:49:41.008Z,4.22
2023-05-03T17:52:26.264Z,4.30
2023-05-03T17:55:12.232Z,4.10
2023-05-03T17:57:57.733Z,4.05
2023-05-03T18:00:43.381Z,4.20
2023-05-03T18:03:28.950Z,4.03
2023-05-03T18:06:14.570Z,3.95
2023-05-03T18:08:59.546Z,4.40
2023-05-03T18:11:45.454Z,4.30
2023-05-03T18:14:30.688Z,4.15
2023-05-03T18:17:16.048Z,4.20
2023-05-03T18:20:01.953Z,6.10
2023-05-03T18:22:47.850Z,4.03
2023-05-03T18:25:33.427Z,4.10
2023-05-03T18:28:20.762Z,4.20
2023-05-03T18:31:06.830Z,3.80
2023-05-03T18:33:52.518Z,3.90
2023-05-03T18:36:37.689Z,3.92
2023-05-03T18:39:23.293Z,3.92
2023-05-03T18:42:08.571Z,3.88
2023-05-03T18:44:53.961Z,3.80
2023-05-03T18:47:39.440Z,4.45
2023-05-03T18:50:24.808Z,3.58
2023-05-03T18:53:10.583Z,4.07
2023-05-03T18:55:56.004Z,3.75
2023-05-03T18:58:41.462Z,3.80
2023-05-03T19:01:27.132Z,4.53
2023-05-03T19:04:14.597Z,3.55
2023-05-03T19:06:59.939Z,4.00
2023-05-03T19:09:45.513Z,3.60
2023-05-03T19:12:30.926Z,3.78
2023-05-03T19:15:16.330Z,3.40
2023-05-03T19:18:01.638Z,3.42
2023-05-03T19:20:47.063Z,3.55
2023-05-03T19:23:32.733Z,3.42
2023-05-03T19:26:18.113Z,4.35
2023-05-03T19:29:03.903Z,4.28
2023-05-03T19:31:49.153Z,4.97
2023-05-03T19:34:36.220Z,4.70
2023-05-03T19:37:21.528Z,4.60
2023-05-03T19:40:07.574Z,4.72
2023-05-03T19:42:55.351Z,4.63
2023-05-03T19:45:42.633Z,5.22
2023-05-03T19:48:27.966Z,4.70
2023-05-03T19:51:14.878Z,5.05
2023-05-03T19:54:03.383Z,5.05
2023-05-03T19:56:48.822Z,4.85
2023-05-03T19:59:34.603Z,4.82
2023-05-03T20:02:20.294Z,4.80
2023-05-03T20:05:07.999Z,4.63
2023-05-03T20:07:53.623Z,4.93
2023-05-03T20:10:39.069Z,4.65
2023-05-03T20:13:26.381Z,4.72
2023-05-03T20:16:11.902Z,4.75
2023-05-03T20:18:57.069Z,4.00
2023-05-03T20:21:42.547Z,3.80
2023-05-03T20:24:28.084Z,4.57
2023-05-03T20:27:13.405Z,4.10
2023-05-03T20:29:59.034Z,4.07
2023-05-03T20:32:44.520Z,3.80
2023-05-03T20:35:30.091Z,4.28
2023-05-03T20:38:15.585Z,3.97
2023-05-03T20:41:00.719Z,3.72
2023-05-03T20:43:46.247Z,3.75
2023-05-03T20:46:31.669Z,4.05
2023-05-03T20:49:16.693Z,3.75
2023-05-03T20:52:02.196Z,4.30
2023-05-03T20:54:47.636Z,4.13
2023-05-03T20:57:32.994Z,3.70
2023-05-03T21:00:18.457Z,4.20
2023-05-03T21:03:04.264Z,5.18
2023-05-03T21:05:49.709Z,4.57
2023-05-03T21:08:35.774Z,4.40
2023-05-03T21:11:20.775Z,3.95
2023-05-03T21:14:06.467Z,4.45
2023-05-03T21:16:51.923Z,4.25
2023-05-03T21:19:39.279Z,3.97
2023-05-03T21:22:24.422Z,4.45
2023-05-03T21:25:10.014Z,4.00
2023-05-03T21:27:55.381Z,4.20
2023-05-03T21:30:42.120Z,4.13
2023-05-03T21:33:27.845Z,4.22
2023-05-03T21:36:13.320Z,4.38
2023-05-03T21:38:58.889Z,4.72
2023-05-03T21:41:44.497Z,4.45
2023-05-03T21:44:29.729Z,4.10
2023-05-03T21:47:15.196Z,4.60
2023-05-03T21:50:01.145Z,4.93
2023-05-03T21:52:46.873Z,4.80
2023-05-03T21:55:32.110Z,4.63
2023-05-03T21:58:17.632Z,3.92
2023-05-03T22:01:03.517Z,4.20
2023-05-03T22:03:50.226Z,4.70
2023-05-03T22:06:35.575Z,4.82
2023-05-03T22:09:21.109Z,4.07
2023-05-03T22:12:22.435Z,4.30
2023-05-03T22:15:10.200Z,4.15
2023-05-03T22:17:56.761Z,4.55
2023-05-03T22:20:42.196Z,4.03
2023-05-03T22:23:27.597Z,4.60
2023-05-03T22:26:13.106Z,4.65
2023-05-03T22:28:58.473Z,4.82
2023-05-03T22:31:44.427Z,4.88
2023-05-03T22:34:29.897Z,4.63
2023-05-03T22:37:15.285Z,5.15
2023-05-03T22:40:00.710Z,5.90
2023-05-03T22:42:46.138Z,5.32
2023-05-03T22:45:31.474Z,5.05
2023-05-03T22:48:16.874Z,5.07
2023-05-03T22:51:02.306Z,5.43
2023-05-03T22:53:47.800Z,5.13
2023-05-03T22:56:33.274Z,5.25
2023-05-03T22:59:19.674Z,5.28
2023-05-03T23:02:05.149Z,5.88
2023-05-03T23:04:50.825Z,5.95
2023-05-03T23:07:36.209Z,5.65
2023-05-03T23:10:21.571Z,5.38
2023-05-03T23:13:07.365Z,5.75
2023-05-03T23:15:53.637Z,6.00
2023-05-03T23:18:39.317Z,5.80
2023-05-03T23:21:24.592Z,6.10
2023-05-03T23:24:10.037Z,5.95
2023-05-03T23:26:55.435Z,6.05
2023-05-03T23:29:41.566Z,6.78
2023-05-03T23:32:27.534Z,7.13
2023-05-03T23:35:14.977Z,6.15
2023-05-03T23:38:00.434Z,6.40
2023-05-03T23:40:45.774Z,6.63
2023-05-03T23:43:30.848Z,6.75
2023-05-03T23:46:16.484Z,6.18
2023-05-03T23:49:01.874Z,6.10
2023-05-03T23:51:47.307Z,7.00
2023-05-03T23:54:33.392Z,6.75
2023-05-03T23:57:18.837Z,6.47
